Bow Lima — 3EMG9 — position and weather

sailwx.info

Track history (hours):
 
Tides and Currents Weather Stations Pressure Air Temp Water Temp Dewpoint Dewpoint Depression Visibility Wind Speed Wind Dir Waves Ship Positions

Bow Lima

Last reported at 2018-Jun-23 05:02 UTC. Time now 2018-Jun-23 12:24 UTC.
Position N 37°38' E 005°25'.

Length 144 m; draft 10 m.

Type: Ship (hazmat cat A). MMSI: 353610000.

Date/timePositionNaut miles runAvg speedWind from/ knotsBaromVisibWave heightAir tempDewpointWater temp
2018-Jun-23 05:02N 37°38' E 005°25'217.5
2018-Jun-23 04:55N 37°38' E 005°22'717.8
2018-Jun-23 04:30N 37°38' E 005°13'917.7
2018-Jun-23 04:01N 37°38' E 005°02'917.7
2018-Jun-23 03:30N 37°37' E 004°51'917.4
2018-Jun-23 03:00N 37°37' E 004°40'917.3
2018-Jun-23 02:30N 37°36' E 004°29'917.2
2018-Jun-23 02:00N 37°35' E 004°18'817.1
2018-Jun-23 01:30N 37°34' E 004°07'817.0
2018-Jun-23 01:01N 37°34' E 003°57'916.9
2018-Jun-23 00:30N 37°33' E 003°46'2216.6
2018-Jun-22 23:10N 37°28' E 003°19'316.6
2018-Jun-22 23:00N 37°27' E 003°15'916.8
2018-Jun-22 22:28N 37°25' E 003°04'816.7
2018-Jun-22 22:00N 37°24' E 002°55'917.1
2018-Jun-22 21:30N 37°21' E 002°45'917.3
2018-Jun-22 21:00N 37°18' E 002°34'917.9
2018-Jun-22 20:30N 37°16' E 002°23'918.2
2018-Jun-22 20:00N 37°14' E 002°12'918.2
2018-Jun-22 19:30N 37°12' E 002°01'917.9
2018-Jun-22 19:00N 37°09' E 001°50'917.5
2018-Jun-22 18:30N 37°07' E 001°40'917.3
2018-Jun-22 18:00N 37°04' E 001°29'917.0
2018-Jun-22 17:30N 37°02' E 001°19'816.9
2018-Jun-22 17:00N 36°60' E 001°09'816.8
2018-Jun-22 16:30N 36°57' E 000°59'817.0
2018-Jun-22 16:01N 36°55' E 000°49'917.7
2018-Jun-22 15:30N 36°52' E 000°38'1517.4
2018-Jun-22 14:40N 36°48' E 000°21'316.8
2018-Jun-22 14:30N 36°47' E 000°18'1016.8
2018-Jun-22 13:56N 36°44' E 000°06'816.7
2018-Jun-22 13:29N 36°42' W 000°03'2916.9
2018-Jun-22 11:47N 36°35' W 000°37'34217.6
2018-Jun-21 16:20N 36°12' W 007°41'616.8
2018-Jun-21 15:57N 36°13' W 007°49'817.1
2018-Jun-21 15:30N 36°15' W 007°58'917.0
2018-Jun-21 15:00N 36°17' W 008°09'917.1
2018-Jun-21 14:27N 36°19' W 008°20'817.3
2018-Jun-21 13:59N 36°22' W 008°29'1517.6
2018-Jun-21 13:10N 36°26' W 008°47'318.4
2018-Jun-21 13:00N 36°27' W 008°50'917.5
2018-Jun-21 12:31N 36°29' W 009°00'917.6
2018-Jun-21 12:00N 36°31' W 009°11'4716.7
2018-Jun-21 09:10N 37°12' W 009°42'317.7
2018-Jun-21 09:00N 37°14' W 009°43'1117.6
2018-Jun-21 08:24N 37°25' W 009°45'717.3
2018-Jun-21 08:00N 37°31' W 009°47'917.5
2018-Jun-21 07:30N 37°40' W 009°49'816.7
2018-Jun-21 07:00N 37°48' W 009°51'917.2
2018-Jun-21 06:31N 37°57' W 009°53'917.5
2018-Jun-21 06:00N 38°05' W 009°56'918.4
2018-Jun-21 05:31N 38°14' W 009°59'918.0
2018-Jun-21 05:01N 38°23' W 010°01'918.3
2018-Jun-21 04:31N 38°32' W 010°04'918.3
2018-Jun-21 04:00N 38°41' W 010°06'918.1
2018-Jun-21 03:31N 38°50' W 010°07'918.3
2018-Jun-21 03:00N 38°59' W 010°06'918.3
2018-Jun-21 02:30N 39°08' W 010°06'918.0
2018-Jun-21 02:00N 39°17' W 010°05'918.0
2018-Jun-21 01:30N 39°26' W 010°04'918.2
2018-Jun-21 01:00N 39°35' W 010°04'918.2
2018-Jun-21 00:30N 39°44' W 010°04'918.2
2018-Jun-21 00:00N 39°53' W 010°04'918.3
2018-Jun-20 23:30N 40°03' W 010°03'51817.5
2018-Jun-19 17:59N 48°15' W 006°18'917.5
2018-Jun-19 17:29N 48°23' W 006°12'2517.9
2018-Jun-19 16:04N 48°44' W 005°53'118.2
2018-Jun-19 16:01N 48°45' W 005°52'918.2
2018-Jun-19 15:30N 48°53' W 005°44'918.6
2018-Jun-19 15:00N 48°59' W 005°33'1218.4
2018-Jun-19 14:22N 49°06' W 005°19'617.7
2018-Jun-19 14:00N 49°10' W 005°11'3517.8
2018-Jun-19 12:03N 49°27' W 004°25'317.1
2018-Jun-19 11:51N 49°29' W 004°21'1316.7
2018-Jun-19 11:03N 49°35' W 004°03'216.2
2018-Jun-19 10:55N 49°36' W 003°59'716.4
2018-Jun-19 10:30N 49°39' W 003°50'916.0
2018-Jun-19 09:55N 49°44' W 003°38'815.7
2018-Jun-19 09:23N 49°48' W 003°26'616.2
2018-Jun-19 09:00N 49°50' W 003°17'816.6
2018-Jun-19 08:30N 49°54' W 003°06'917.5
2018-Jun-19 08:01N 49°58' W 002°54'1018.1
2018-Jun-19 07:27N 50°01' W 002°39'1019.1
2018-Jun-19 06:57N 50°04' W 002°24'920.0
2018-Jun-19 06:29N 50°06' W 002°10'1220.6
2018-Jun-19 05:53N 50°10' W 001°52'820.6
2018-Jun-19 05:30N 50°12' W 001°40'1020.2
2018-Jun-19 05:00N 50°14' W 001°25'1219.6
2018-Jun-19 04:23N 50°18' W 001°07'718.5
2018-Jun-19 03:59N 50°20' W 000°56'917.6
2018-Jun-19 03:30N 50°22' W 000°43'2016.6
2018-Jun-19 02:16N 50°28' W 000°12'516.0
2018-Jun-19 01:58N 50°30' W 000°05'715.6
2018-Jun-19 01:31N 50°31' E 000°06'715.0
2018-Jun-19 01:01N 50°33' E 000°17'714.7
2018-Jun-19 00:31N 50°35' E 000°29'815.0
2018-Jun-19 00:01N 50°38' E 000°40'816.1
2018-Jun-18 23:31N 50°42' E 000°50'917.1
2018-Jun-18 23:00N 50°47' E 001°02'917.9
2018-Jun-18 22:30N 50°52' E 001°13'918.0
2018-Jun-18 22:00N 50°59' E 001°23'918.5
2018-Jun-18 21:31N 51°05' E 001°33'917.3
2018-Jun-18 21:01N 51°13' E 001°41'816.4
2018-Jun-18 20:31N 51°21' E 001°43'816.0
2018-Jun-18 20:01N 51°28' E 001°46'815.6
2018-Jun-18 19:31N 51°36' E 001°46'815.2
2018-Jun-18 19:01N 51°44' E 001°45'713.2
2018-Jun-18 18:31N 51°50' E 001°43'611.1
2018-Jun-18 18:00N 51°50' E 001°34'917.6
2018-Jun-18 17:31N 51°42' E 001°28'918.2
2018-Jun-18 17:00N 51°36' E 001°18'816.2
2018-Jun-18 16:31N 51°32' E 001°06'815.3
2018-Jun-18 16:00N 51°29' E 000°55'714.4
2018-Jun-18 15:31N 51°30' E 000°44'611.9
2018-Jun-18 15:00N 51°30' E 000°34'2 4.8
2018-Jun-18 14:31N 51°30' E 000°30'0 0.1
2018-Jun-18 14:00N 51°30' E 000°30'0 0.0
2018-Jun-18 13:27N 51°30' E 000°30'0 0.0
2018-Jun-18 13:00N 51°30' E 000°30'0 0.0
2018-Jun-18 12:30N 51°30' E 000°30'0 0.0
2018-Jun-18 12:00N 51°30' E 000°30'0 0.0
2018-Jun-18 11:31N 51°30' E 000°30'0 0.0
2018-Jun-18 11:01N 51°30' E 000°30'0 0.0
2018-Jun-18 10:31N 51°30' E 000°30'0 0.0
2018-Jun-18 10:00N 51°30' E 000°30'0 0.0
2018-Jun-18 09:29N 51°30' E 000°30'0 0.0
2018-Jun-18 09:01N 51°30' E 000°30'0 0.0
2018-Jun-18 08:30N 51°30' E 000°30'0 0.0
2018-Jun-18 08:00N 51°30' E 000°30'0 0.0
2018-Jun-18 07:30N 51°30' E 000°30'0 0.0
2018-Jun-18 07:00N 51°30' E 000°30'0 0.0
2018-Jun-18 06:28N 51°30' E 000°30'0 0.0
2018-Jun-18 05:58N 51°30' E 000°30'0 0.0
2018-Jun-18 05:30N 51°30' E 000°30'0 0.0
2018-Jun-18 05:00N 51°30' E 000°30'0 0.0
2018-Jun-18 04:30N 51°30' E 000°30'0 0.0
2018-Jun-18 03:59N 51°30' E 000°30'0 0.0
2018-Jun-18 03:29N 51°30' E 000°30'0 0.0
2018-Jun-18 03:01N 51°30' E 000°30'0 0.0
2018-Jun-18 02:30N 51°30' E 000°30'0 0.0
2018-Jun-18 02:01N 51°30' E 000°30'0 0.0
2018-Jun-18 01:30N 51°30' E 000°30'0 0.0
2018-Jun-18 01:00N 51°30' E 000°30'0 0.0
2018-Jun-18 00:31N 51°30' E 000°30'0 0.0
2018-Jun-18 00:01N 51°30' E 000°30'0 0.0
2018-Jun-17 23:31N 51°30' E 000°30'0 0.0
2018-Jun-17 23:01N 51°30' E 000°30'0 0.0
2018-Jun-17 22:31N 51°30' E 000°30'0 0.0
2018-Jun-17 22:01N 51°30' E 000°30'0 0.0
2018-Jun-17 21:30N 51°30' E 000°30'0 0.0
2018-Jun-17 21:01N 51°30' E 000°30'0 0.0
2018-Jun-17 20:30N 51°30' E 000°30'0 0.0
2018-Jun-17 20:00N 51°30' E 000°30'0 0.0
2018-Jun-17 19:31N 51°30' E 000°30'0 0.0
2018-Jun-17 19:01N 51°30' E 000°30'0 0.0
2018-Jun-17 18:30N 51°30' E 000°30'0 0.0
2018-Jun-17 17:58N 51°30' E 000°30'0 0.0
2018-Jun-17 17:30N 51°30' E 000°30'0 0.0
2018-Jun-17 17:00N 51°30' E 000°30'0 0.0
2018-Jun-17 16:30N 51°30' E 000°30'0 0.0
2018-Jun-17 16:00N 51°30' E 000°30'0 0.0
2018-Jun-17 15:29N 51°30' E 000°30'0 0.0
2018-Jun-17 15:01N 51°30' E 000°30'0 0.0
2018-Jun-17 14:29N 51°30' E 000°30'0 0.0
2018-Jun-17 13:59N 51°30' E 000°30'0 0.0
2018-Jun-17 13:31N 51°30' E 000°30'0 0.0
2018-Jun-17 13:00N 51°30' E 000°30'0 0.0
2018-Jun-17 12:31N 51°30' E 000°30'0 0.0
2018-Jun-17 12:00N 51°30' E 000°30'0 0.0
2018-Jun-17 11:30N 51°30' E 000°30'0 0.0
2018-Jun-17 11:00N 51°30' E 000°30'0 0.0
2018-Jun-17 10:30N 51°30' E 000°30'0 0.0
2018-Jun-17 10:01N 51°30' E 000°30'0 0.0
2018-Jun-17 09:31N 51°30' E 000°30'0 0.0
2018-Jun-17 09:01N 51°30' E 000°30'0 0.0
2018-Jun-17 08:30N 51°30' E 000°30'0 0.0
2018-Jun-17 08:00N 51°30' E 000°30'0 0.0
2018-Jun-17 07:30N 51°30' E 000°30'0 0.0
2018-Jun-17 07:01N 51°30' E 000°30'0 0.0
2018-Jun-17 06:30N 51°30' E 000°30'0 0.0
2018-Jun-17 06:00N 51°30' E 000°30'0 0.0
2018-Jun-17 05:31N 51°30' E 000°30'0 0.0
2018-Jun-17 05:01N 51°30' E 000°30'0 0.0
2018-Jun-17 04:30N 51°30' E 000°30'0 0.0
2018-Jun-17 04:01N 51°30' E 000°30'0 0.0
2018-Jun-17 03:29N 51°30' E 000°30'0 0.0
2018-Jun-17 02:59N 51°30' E 000°30'0 0.0
2018-Jun-17 02:28N 51°30' E 000°30'0 0.0
2018-Jun-17 01:59N 51°30' E 000°30'0 0.0
2018-Jun-17 01:30N 51°30' E 000°30'0 0.0
2018-Jun-17 01:01N 51°30' E 000°30'0 0.0
2018-Jun-17 00:31N 51°30' E 000°30'0 0.3
2018-Jun-17 00:01N 51°30' E 000°30'4 7.4
2018-Jun-16 23:30N 51°30' E 000°36'713.8
2018-Jun-16 23:00N 51°29' E 000°47'613.0
2018-Jun-16 22:30N 51°29' E 000°58'713.2
2018-Jun-16 22:00N 51°32' E 001°07'612.6
2018-Jun-16 21:30N 51°35' E 001°16'713.2
2018-Jun-16 21:00N 51°39' E 001°24'612.7
2018-Jun-16 20:30N 51°44' E 001°30'611.6
2018-Jun-16 20:00N 51°50' E 001°34'4 8.2
2018-Jun-16 19:30N 51°52' E 001°40'3 6.9
2018-Jun-16 19:00N 51°51' E 001°45'4 7.6
2018-Jun-16 18:30N 51°48' E 001°48'5 9.9
2018-Jun-16 18:00N 51°43' E 001°48'510.0
2018-Jun-16 17:30N 51°38' E 001°49'3 6.6
2018-Jun-16 17:00N 51°35' E 001°49'2 3.0
2018-Jun-16 16:30N 51°33' E 001°48'2 3.6
2018-Jun-16 16:00N 51°32' E 001°48'4 8.3
2018-Jun-16 15:30N 51°27' E 001°46'510.0
2018-Jun-16 15:00N 51°23' E 001°45'510.2
2018-Jun-16 14:30N 51°18' E 001°42'510.5
2018-Jun-16 14:00N 51°13' E 001°39'5 9.6
2018-Jun-16 13:30N 51°08' E 001°39'612.3
2018-Jun-16 13:00N 51°02' E 001°35'713.4
2018-Jun-16 12:30N 50°57' E 001°28'612.1
2018-Jun-16 12:00N 50°52' E 001°24'611.7
2018-Jun-16 11:31N 50°46' E 001°22'611.2
2018-Jun-16 11:00N 50°41' E 001°18'611.8
2018-Jun-16 10:30N 50°37' E 001°11'611.8
2018-Jun-16 10:00N 50°33' E 001°05'611.8
2018-Jun-16 09:30N 50°29' E 000°57'611.5
2018-Jun-16 09:00N 50°26' E 000°50'711.2
2018-Jun-16 08:20N 50°22' E 000°41'510.6
2018-Jun-16 07:51N 50°18' E 000°34'410.2
2018-Jun-16 07:30N 50°16' E 000°31'5 9.9
2018-Jun-16 07:01N 50°12' E 000°25'5 9.6
2018-Jun-16 06:30N 50°09' E 000°20'5 9.3
2018-Jun-16 06:00N 50°05' E 000°15'5 9.1
2018-Jun-16 05:30N 50°02' E 000°10'4 8.8
2018-Jun-16 05:00N 49°59' E 000°06'4 8.9
2018-Jun-16 04:30N 49°55' E 000°01'4 9.0
2018-Jun-16 04:00N 49°52' W 000°03'5 9.3
2018-Jun-16 03:30N 49°48' W 000°07'5 9.9
2018-Jun-16 03:00N 49°43' W 000°09'511.0
2018-Jun-16 02:30N 49°38' W 000°08'611.0
2018-Jun-16 02:00N 49°32' W 000°06'612.1
2018-Jun-16 01:30N 49°30' E 000°03'5 9.4
2018-Jun-16 01:00N 49°27' E 000°09'1 0.9
2018-Jun-16 00:28N 49°27' E 000°10'0 0.0
2018-Jun-15 23:58N 49°27' E 000°10'0 0.0
2018-Jun-15 23:28N 49°27' E 000°10'0 0.0
2018-Jun-15 22:58N 49°27' E 000°10'0 0.0
2018-Jun-15 22:28N 49°27' E 000°10'0 0.0
2018-Jun-15 21:58N 49°27' E 000°10'0 0.0
2018-Jun-15 21:28N 49°27' E 000°10'0 0.0
2018-Jun-15 20:58N 49°27' E 000°10'0 0.0
2018-Jun-15 20:28N 49°27' E 000°10'0 0.0
2018-Jun-15 19:58N 49°27' E 000°10'0 0.0
2018-Jun-15 19:28N 49°27' E 000°10'0 0.0
2018-Jun-15 18:58N 49°27' E 000°10'0 0.0
2018-Jun-15 18:28N 49°27' E 000°10'0 0.0
2018-Jun-15 17:58N 49°27' E 000°10'0 0.0
2018-Jun-15 17:28N 49°27' E 000°10'0 0.0
2018-Jun-15 16:58N 49°27' E 000°10'0 0.0
2018-Jun-15 16:28N 49°27' E 000°10'0 0.0
2018-Jun-15 15:58N 49°27' E 000°10'0 0.0
2018-Jun-15 15:28N 49°27' E 000°10'0 0.0
2018-Jun-15 14:58N 49°27' E 000°10'0 0.0
2018-Jun-15 14:28N 49°27' E 000°10'0 0.0
2018-Jun-15 13:58N 49°27' E 000°10'0 0.0
2018-Jun-15 13:28N 49°27' E 000°10'0 0.0
2018-Jun-15 12:58N 49°27' E 000°10'0 0.0
2018-Jun-15 12:28N 49°27' E 000°10'0 0.0
2018-Jun-15 11:58N 49°27' E 000°10'0 0.0
2018-Jun-15 11:28N 49°27' E 000°10'0 0.0
2018-Jun-15 10:58N 49°27' E 000°10'0 0.0
2018-Jun-15 10:28N 49°27' E 000°10'0 0.0
2018-Jun-15 09:58N 49°27' E 000°10'0 0.0
2018-Jun-15 09:28N 49°27' E 000°10'0 0.0
2018-Jun-15 08:58N 49°27' E 000°10'0 0.0
2018-Jun-15 08:28N 49°27' E 000°10'0 0.0
2018-Jun-15 07:58N 49°27' E 000°10'0 0.0
2018-Jun-15 07:28N 49°27' E 000°10'0 0.0
2018-Jun-15 06:58N 49°27' E 000°10'0 0.0
2018-Jun-15 06:28N 49°27' E 000°10'0 0.0
2018-Jun-15 05:58N 49°27' E 000°10'0 0.0
2018-Jun-15 05:28N 49°27' E 000°10'0 0.0
2018-Jun-15 04:58N 49°27' E 000°10'0 0.7
2018-Jun-15 04:30N 49°27' E 000°09'3 5.4
2018-Jun-15 04:00N 49°29' E 000°05'613.0
2018-Jun-15 03:30N 49°31' W 000°04'510.5
2018-Jun-15 03:00N 49°33' W 000°11'2 3.0
2018-Jun-15 02:30N 49°35' W 000°12'2 4.4
2018-Jun-15 01:59N 49°37' W 000°14'0 0.1
2018-Jun-15 01:29N 49°37' W 000°14'0 0.3
2018-Jun-15 00:59N 49°37' W 000°13'0 0.1
2018-Jun-15 00:29N 49°37' W 000°13'0 0.1
2018-Jun-14 23:59N 49°37' W 000°13'0 0.0
2018-Jun-14 23:29N 49°37' W 000°13'0 0.0
2018-Jun-14 22:59N 49°37' W 000°13'0 0.0
2018-Jun-14 22:29N 49°37' W 000°13'0 0.0
2018-Jun-14 21:59N 49°37' W 000°13'0 0.0
2018-Jun-14 21:29N 49°37' W 000°13'0 0.0
2018-Jun-14 20:59N 49°37' W 000°13'0 0.0
2018-Jun-14 20:29N 49°37' W 000°13'0 0.0
2018-Jun-14 19:59N 49°37' W 000°13'0 0.1
2018-Jun-14 19:29N 49°37' W 000°13'0 0.0
2018-Jun-14 18:59N 49°37' W 000°13'0 0.0
2018-Jun-14 18:26N 49°37' W 000°13'0 0.1
2018-Jun-14 17:59N 49°37' W 000°13'0 0.1
2018-Jun-14 17:29N 49°37' W 000°13'0 0.1
2018-Jun-14 16:59N 49°37' W 000°14'0 0.0
2018-Jun-14 16:29N 49°37' W 000°14'0 0.1
2018-Jun-14 15:59N 49°37' W 000°14'0 0.0
2018-Jun-14 15:29N 49°37' W 000°14'0 0.0
2018-Jun-14 14:59N 49°37' W 000°14'0 0.1
2018-Jun-14 14:29N 49°37' W 000°14'0 0.3
2018-Jun-14 13:59N 49°37' W 000°14'0 0.2
2018-Jun-14 13:29N 49°37' W 000°13'0 0.1
2018-Jun-14 12:59N 49°37' W 000°13'0 0.1
2018-Jun-14 12:29N 49°37' W 000°13'0 0.0
2018-Jun-14 11:59N 49°37' W 000°13'0 0.0
2018-Jun-14 11:29N 49°37' W 000°13'0 0.0
2018-Jun-14 10:59N 49°37' W 000°13'0 0.0
2018-Jun-14 10:29N 49°37' W 000°13'0 0.0
2018-Jun-14 09:59N 49°37' W 000°13'0 0.0
2018-Jun-14 09:29N 49°37' W 000°13'0 0.0
2018-Jun-14 08:59N 49°37' W 000°13'0 0.0
2018-Jun-14 08:29N 49°37' W 000°13'0 0.1
2018-Jun-14 07:59N 49°37' W 000°13'0 0.0
2018-Jun-14 07:29N 49°37' W 000°13'0 0.1
2018-Jun-14 06:59N 49°37' W 000°13'0 0.0
2018-Jun-14 06:29N 49°37' W 000°13'0 0.5
2018-Jun-14 05:59N 49°37' W 000°13'0 0.2
2018-Jun-14 05:29N 49°37' W 000°14'0 0.1
2018-Jun-14 04:59N 49°37' W 000°14'0 0.0
2018-Jun-14 04:29N 49°37' W 000°14'0 0.0
2018-Jun-14 03:59N 49°37' W 000°14'0 0.0
2018-Jun-14 03:29N 49°37' W 000°14'0 0.0
2018-Jun-14 02:59N 49°37' W 000°14'0 0.0
2018-Jun-14 02:29N 49°37' W 000°14'0 0.0
2018-Jun-14 01:59N 49°37' W 000°14'0 0.0
2018-Jun-14 01:29N 49°37' W 000°14'0 0.6
2018-Jun-14 01:00N 49°37' W 000°14'3 5.6
2018-Jun-14 00:30N 49°40' W 000°15'510.7
2018-Jun-14 00:00N 49°44' W 000°11'510.5
2018-Jun-13 23:30N 49°49' W 000°09'510.3
2018-Jun-13 23:00N 49°54' W 000°07'510.1
2018-Jun-13 22:30N 49°59' W 000°06'5 9.7
2018-Jun-13 22:00N 50°04' W 000°05'4 9.1
2018-Jun-13 21:30N 50°09' W 000°04'4 8.9
2018-Jun-13 21:00N 50°13' W 000°03'5 9.2
2018-Jun-13 20:30N 50°18' W 000°03'5 9.4
2018-Jun-13 20:00N 50°22' W 000°03'5 9.2
2018-Jun-13 19:30N 50°27' W 000°03'4 8.4
2018-Jun-13 19:00N 50°28' E 000°03'5 9.2
2018-Jun-13 18:31N 50°30' E 000°10'5 9.9
2018-Jun-13 18:00N 50°31' E 000°18'510.7
2018-Jun-13 17:31N 50°33' E 000°26'611.3
2018-Jun-13 17:00N 50°34' E 000°34'611.7
2018-Jun-13 16:30N 50°38' E 000°42'611.6
2018-Jun-13 16:00N 50°41' E 000°49'611.5
2018-Jun-13 15:30N 50°44' E 000°57'611.1
2018-Jun-13 15:01N 50°48' E 001°04'510.5
2018-Jun-13 14:30N 50°50' E 001°11'510.1
2018-Jun-13 14:01N 50°53' E 001°17'5 9.4
2018-Jun-13 13:30N 50°57' E 001°22'4 8.5
2018-Jun-13 13:00N 51°01' E 001°26'4 7.9
2018-Jun-13 12:30N 51°03' E 001°30'4 7.2
2018-Jun-13 12:01N 51°06' E 001°34'4 7.2
2018-Jun-13 11:30N 51°08' E 001°39'4 7.9
2018-Jun-13 11:00N 51°11' E 001°43'4 8.7
2018-Jun-13 10:30N 51°15' E 001°48'5 9.7
2018-Jun-13 10:00N 51°19' E 001°52'510.7
2018-Jun-13 09:30N 51°23' E 001°57'4 8.7
2018-Jun-13 09:00N 51°24' E 002°04'510.5
2018-Jun-13 08:30N 51°21' E 002°11'611.2
2018-Jun-13 08:00N 51°20' E 002°20'612.7
2018-Jun-13 07:30N 51°23' E 002°30'612.1
2018-Jun-13 07:00N 51°23' E 002°39'612.0
2018-Jun-13 06:30N 51°25' E 002°48'916.6
2018-Jun-13 06:00N 51°25' E 003°02'816.8
2018-Jun-13 05:30N 51°25' E 003°15'  
Track history (hours):
 
Tides and Currents Weather Stations Pressure Air Temp Water Temp Dewpoint Dewpoint Depression Visibility Wind Speed Wind Dir Waves Ship Positions

Bow Lima

Last reported at 2018-Jun-23 05:02 UTC. Time now 2018-Jun-23 12:24 UTC.
Position N 37°38' E 005°25'.

Length 144 m; draft 10 m.

Type: Ship (hazmat cat A). MMSI: 353610000.

Date/timePositionNaut miles runAvg speedWind from/ knotsBaromVisibWave heightAir tempDewpointWater temp
2018-Jun-23 05:02N 37°38' E 005°25'217.5
2018-Jun-23 04:55N 37°38' E 005°22'717.8
2018-Jun-23 04:30N 37°38' E 005°13'917.7
2018-Jun-23 04:01N 37°38' E 005°02'917.7
2018-Jun-23 03:30N 37°37' E 004°51'917.4
2018-Jun-23 03:00N 37°37' E 004°40'917.3
2018-Jun-23 02:30N 37°36' E 004°29'917.2
2018-Jun-23 02:00N 37°35' E 004°18'817.1
2018-Jun-23 01:30N 37°34' E 004°07'817.0
2018-Jun-23 01:01N 37°34' E 003°57'916.9
2018-Jun-23 00:30N 37°33' E 003°46'2216.6
2018-Jun-22 23:10N 37°28' E 003°19'316.6
2018-Jun-22 23:00N 37°27' E 003°15'916.8
2018-Jun-22 22:28N 37°25' E 003°04'816.7
2018-Jun-22 22:00N 37°24' E 002°55'917.1
2018-Jun-22 21:30N 37°21' E 002°45'917.3
2018-Jun-22 21:00N 37°18' E 002°34'917.9
2018-Jun-22 20:30N 37°16' E 002°23'918.2
2018-Jun-22 20:00N 37°14' E 002°12'918.2
2018-Jun-22 19:30N 37°12' E 002°01'917.9
2018-Jun-22 19:00N 37°09' E 001°50'917.5
2018-Jun-22 18:30N 37°07' E 001°40'917.3
2018-Jun-22 18:00N 37°04' E 001°29'917.0
2018-Jun-22 17:30N 37°02' E 001°19'816.9
2018-Jun-22 17:00N 36°60' E 001°09'816.8
2018-Jun-22 16:30N 36°57' E 000°59'817.0
2018-Jun-22 16:01N 36°55' E 000°49'917.7
2018-Jun-22 15:30N 36°52' E 000°38'1517.4
2018-Jun-22 14:40N 36°48' E 000°21'316.8
2018-Jun-22 14:30N 36°47' E 000°18'1016.8
2018-Jun-22 13:56N 36°44' E 000°06'816.7
2018-Jun-22 13:29N 36°42' W 000°03'2916.9
2018-Jun-22 11:47N 36°35' W 000°37'34217.6
2018-Jun-21 16:20N 36°12' W 007°41'616.8
2018-Jun-21 15:57N 36°13' W 007°49'817.1
2018-Jun-21 15:30N 36°15' W 007°58'917.0
2018-Jun-21 15:00N 36°17' W 008°09'917.1
2018-Jun-21 14:27N 36°19' W 008°20'817.3
2018-Jun-21 13:59N 36°22' W 008°29'1517.6
2018-Jun-21 13:10N 36°26' W 008°47'318.4
2018-Jun-21 13:00N 36°27' W 008°50'917.5
2018-Jun-21 12:31N 36°29' W 009°00'917.6
2018-Jun-21 12:00N 36°31' W 009°11'4716.7
2018-Jun-21 09:10N 37°12' W 009°42'317.7
2018-Jun-21 09:00N 37°14' W 009°43'1117.6
2018-Jun-21 08:24N 37°25' W 009°45'717.3
2018-Jun-21 08:00N 37°31' W 009°47'917.5
2018-Jun-21 07:30N 37°40' W 009°49'816.7
2018-Jun-21 07:00N 37°48' W 009°51'917.2
2018-Jun-21 06:31N 37°57' W 009°53'917.5
2018-Jun-21 06:00N 38°05' W 009°56'918.4
2018-Jun-21 05:31N 38°14' W 009°59'918.0
2018-Jun-21 05:01N 38°23' W 010°01'918.3
2018-Jun-21 04:31N 38°32' W 010°04'918.3
2018-Jun-21 04:00N 38°41' W 010°06'918.1
2018-Jun-21 03:31N 38°50' W 010°07'918.3
2018-Jun-21 03:00N 38°59' W 010°06'918.3
2018-Jun-21 02:30N 39°08' W 010°06'918.0
2018-Jun-21 02:00N 39°17' W 010°05'918.0
2018-Jun-21 01:30N 39°26' W 010°04'918.2
2018-Jun-21 01:00N 39°35' W 010°04'918.2
2018-Jun-21 00:30N 39°44' W 010°04'918.2
2018-Jun-21 00:00N 39°53' W 010°04'918.3
2018-Jun-20 23:30N 40°03' W 010°03'51817.5
2018-Jun-19 17:59N 48°15' W 006°18'917.5
2018-Jun-19 17:29N 48°23' W 006°12'2517.9
2018-Jun-19 16:04N 48°44' W 005°53'118.2
2018-Jun-19 16:01N 48°45' W 005°52'918.2
2018-Jun-19 15:30N 48°53' W 005°44'918.6
2018-Jun-19 15:00N 48°59' W 005°33'1218.4
2018-Jun-19 14:22N 49°06' W 005°19'617.7
2018-Jun-19 14:00N 49°10' W 005°11'3517.8
2018-Jun-19 12:03N 49°27' W 004°25'317.1
2018-Jun-19 11:51N 49°29' W 004°21'1316.7
2018-Jun-19 11:03N 49°35' W 004°03'216.2
2018-Jun-19 10:55N 49°36' W 003°59'716.4
2018-Jun-19 10:30N 49°39' W 003°50'916.0
2018-Jun-19 09:55N 49°44' W 003°38'815.7
2018-Jun-19 09:23N 49°48' W 003°26'616.2
2018-Jun-19 09:00N 49°50' W 003°17'816.6
2018-Jun-19 08:30N 49°54' W 003°06'917.5
2018-Jun-19 08:01N 49°58' W 002°54'1018.1
2018-Jun-19 07:27N 50°01' W 002°39'1019.1
2018-Jun-19 06:57N 50°04' W 002°24'920.0
2018-Jun-19 06:29N 50°06' W 002°10'1220.6
2018-Jun-19 05:53N 50°10' W 001°52'820.6
2018-Jun-19 05:30N 50°12' W 001°40'1020.2
2018-Jun-19 05:00N 50°14' W 001°25'1219.6
2018-Jun-19 04:23N 50°18' W 001°07'718.5
2018-Jun-19 03:59N 50°20' W 000°56'917.6
2018-Jun-19 03:30N 50°22' W 000°43'2016.6
2018-Jun-19 02:16N 50°28' W 000°12'516.0
2018-Jun-19 01:58N 50°30' W 000°05'715.6
2018-Jun-19 01:31N 50°31' E 000°06'715.0
2018-Jun-19 01:01N 50°33' E 000°17'714.7
2018-Jun-19 00:31N 50°35' E 000°29'815.0
2018-Jun-19 00:01N 50°38' E 000°40'816.1
2018-Jun-18 23:31N 50°42' E 000°50'917.1
2018-Jun-18 23:00N 50°47' E 001°02'917.9
2018-Jun-18 22:30N 50°52' E 001°13'918.0
2018-Jun-18 22:00N 50°59' E 001°23'918.5
2018-Jun-18 21:31N 51°05' E 001°33'917.3
2018-Jun-18 21:01N 51°13' E 001°41'816.4
2018-Jun-18 20:31N 51°21' E 001°43'816.0
2018-Jun-18 20:01N 51°28' E 001°46'815.6
2018-Jun-18 19:31N 51°36' E 001°46'815.2
2018-Jun-18 19:01N 51°44' E 001°45'713.2
2018-Jun-18 18:31N 51°50' E 001°43'611.1
2018-Jun-18 18:00N 51°50' E 001°34'917.6
2018-Jun-18 17:31N 51°42' E 001°28'918.2
2018-Jun-18 17:00N 51°36' E 001°18'816.2
2018-Jun-18 16:31N 51°32' E 001°06'815.3
2018-Jun-18 16:00N 51°29' E 000°55'714.4
2018-Jun-18 15:31N 51°30' E 000°44'611.9
2018-Jun-18 15:00N 51°30' E 000°34'2 4.8
2018-Jun-18 14:31N 51°30' E 000°30'0 0.1
2018-Jun-18 14:00N 51°30' E 000°30'0 0.0
2018-Jun-18 13:27N 51°30' E 000°30'0 0.0
2018-Jun-18 13:00N 51°30' E 000°30'0 0.0
2018-Jun-18 12:30N 51°30' E 000°30'0 0.0
2018-Jun-18 12:00N 51°30' E 000°30'0 0.0
2018-Jun-18 11:31N 51°30' E 000°30'0 0.0
2018-Jun-18 11:01N 51°30' E 000°30'0 0.0
2018-Jun-18 10:31N 51°30' E 000°30'0 0.0
2018-Jun-18 10:00N 51°30' E 000°30'0 0.0
2018-Jun-18 09:29N 51°30' E 000°30'0 0.0
2018-Jun-18 09:01N 51°30' E 000°30'0 0.0
2018-Jun-18 08:30N 51°30' E 000°30'0 0.0
2018-Jun-18 08:00N 51°30' E 000°30'0 0.0
2018-Jun-18 07:30N 51°30' E 000°30'0 0.0
2018-Jun-18 07:00N 51°30' E 000°30'0 0.0
2018-Jun-18 06:28N 51°30' E 000°30'0 0.0
2018-Jun-18 05:58N 51°30' E 000°30'0 0.0
2018-Jun-18 05:30N 51°30' E 000°30'0 0.0
2018-Jun-18 05:00N 51°30' E 000°30'0 0.0
2018-Jun-18 04:30N 51°30' E 000°30'0 0.0
2018-Jun-18 03:59N 51°30' E 000°30'0 0.0
2018-Jun-18 03:29N 51°30' E 000°30'0 0.0
2018-Jun-18 03:01N 51°30' E 000°30'0 0.0
2018-Jun-18 02:30N 51°30' E 000°30'0 0.0
2018-Jun-18 02:01N 51°30' E 000°30'0 0.0
2018-Jun-18 01:30N 51°30' E 000°30'0 0.0
2018-Jun-18 01:00N 51°30' E 000°30'0 0.0
2018-Jun-18 00:31N 51°30' E 000°30'0 0.0
2018-Jun-18 00:01N 51°30' E 000°30'0 0.0
2018-Jun-17 23:31N 51°30' E 000°30'0 0.0
2018-Jun-17 23:01N 51°30' E 000°30'0 0.0
2018-Jun-17 22:31N 51°30' E 000°30'0 0.0
2018-Jun-17 22:01N 51°30' E 000°30'0 0.0
2018-Jun-17 21:30N 51°30' E 000°30'0 0.0
2018-Jun-17 21:01N 51°30' E 000°30'0 0.0
2018-Jun-17 20:30N 51°30' E 000°30'0 0.0
2018-Jun-17 20:00N 51°30' E 000°30'0 0.0
2018-Jun-17 19:31N 51°30' E 000°30'0 0.0
2018-Jun-17 19:01N 51°30' E 000°30'0 0.0
2018-Jun-17 18:30N 51°30' E 000°30'0 0.0
2018-Jun-17 17:58N 51°30' E 000°30'0 0.0
2018-Jun-17 17:30N 51°30' E 000°30'0 0.0
2018-Jun-17 17:00N 51°30' E 000°30'0 0.0
2018-Jun-17 16:30N 51°30' E 000°30'0 0.0
2018-Jun-17 16:00N 51°30' E 000°30'0 0.0
2018-Jun-17 15:29N 51°30' E 000°30'0 0.0
2018-Jun-17 15:01N 51°30' E 000°30'0 0.0
2018-Jun-17 14:29N 51°30' E 000°30'0 0.0
2018-Jun-17 13:59N 51°30' E 000°30'0 0.0
2018-Jun-17 13:31N 51°30' E 000°30'0 0.0
2018-Jun-17 13:00N 51°30' E 000°30'0 0.0
2018-Jun-17 12:31N 51°30' E 000°30'0 0.0
2018-Jun-17 12:00N 51°30' E 000°30'0 0.0
2018-Jun-17 11:30N 51°30' E 000°30'0 0.0
2018-Jun-17 11:00N 51°30' E 000°30'0 0.0
2018-Jun-17 10:30N 51°30' E 000°30'0 0.0
2018-Jun-17 10:01N 51°30' E 000°30'0 0.0
2018-Jun-17 09:31N 51°30' E 000°30'0 0.0
2018-Jun-17 09:01N 51°30' E 000°30'0 0.0
2018-Jun-17 08:30N 51°30' E 000°30'0 0.0
2018-Jun-17 08:00N 51°30' E 000°30'0 0.0
2018-Jun-17 07:30N 51°30' E 000°30'0 0.0
2018-Jun-17 07:01N 51°30' E 000°30'0 0.0
2018-Jun-17 06:30N 51°30' E 000°30'0 0.0
2018-Jun-17 06:00N 51°30' E 000°30'0 0.0
2018-Jun-17 05:31N 51°30' E 000°30'0 0.0
2018-Jun-17 05:01N 51°30' E 000°30'0 0.0
2018-Jun-17 04:30N 51°30' E 000°30'0 0.0
2018-Jun-17 04:01N 51°30' E 000°30'0 0.0
2018-Jun-17 03:29N 51°30' E 000°30'0 0.0
2018-Jun-17 02:59N 51°30' E 000°30'0 0.0
2018-Jun-17 02:28N 51°30' E 000°30'0 0.0
2018-Jun-17 01:59N 51°30' E 000°30'0 0.0
2018-Jun-17 01:30N 51°30' E 000°30'0 0.0
2018-Jun-17 01:01N 51°30' E 000°30'0 0.0
2018-Jun-17 00:31N 51°30' E 000°30'0 0.3
2018-Jun-17 00:01N 51°30' E 000°30'4 7.4
2018-Jun-16 23:30N 51°30' E 000°36'713.8
2018-Jun-16 23:00N 51°29' E 000°47'613.0
2018-Jun-16 22:30N 51°29' E 000°58'713.2
2018-Jun-16 22:00N 51°32' E 001°07'612.6
2018-Jun-16 21:30N 51°35' E 001°16'713.2
2018-Jun-16 21:00N 51°39' E 001°24'612.7
2018-Jun-16 20:30N 51°44' E 001°30'611.6
2018-Jun-16 20:00N 51°50' E 001°34'4 8.2
2018-Jun-16 19:30N 51°52' E 001°40'3 6.9
2018-Jun-16 19:00N 51°51' E 001°45'4 7.6
2018-Jun-16 18:30N 51°48' E 001°48'5 9.9
2018-Jun-16 18:00N 51°43' E 001°48'510.0
2018-Jun-16 17:30N 51°38' E 001°49'3 6.6
2018-Jun-16 17:00N 51°35' E 001°49'2 3.0
2018-Jun-16 16:30N 51°33' E 001°48'2 3.6
2018-Jun-16 16:00N 51°32' E 001°48'4 8.3
2018-Jun-16 15:30N 51°27' E 001°46'510.0
2018-Jun-16 15:00N 51°23' E 001°45'510.2
2018-Jun-16 14:30N 51°18' E 001°42'510.5
2018-Jun-16 14:00N 51°13' E 001°39'5 9.6
2018-Jun-16 13:30N 51°08' E 001°39'612.3
2018-Jun-16 13:00N 51°02' E 001°35'713.4
2018-Jun-16 12:30N 50°57' E 001°28'612.1
2018-Jun-16 12:00N 50°52' E 001°24'611.7
2018-Jun-16 11:31N 50°46' E 001°22'611.2
2018-Jun-16 11:00N 50°41' E 001°18'611.8
2018-Jun-16 10:30N 50°37' E 001°11'611.8
2018-Jun-16 10:00N 50°33' E 001°05'611.8
2018-Jun-16 09:30N 50°29' E 000°57'611.5
2018-Jun-16 09:00N 50°26' E 000°50'711.2
2018-Jun-16 08:20N 50°22' E 000°41'510.6
2018-Jun-16 07:51N 50°18' E 000°34'410.2
2018-Jun-16 07:30N 50°16' E 000°31'5 9.9
2018-Jun-16 07:01N 50°12' E 000°25'5 9.6
2018-Jun-16 06:30N 50°09' E 000°20'5 9.3
2018-Jun-16 06:00N 50°05' E 000°15'5 9.1
2018-Jun-16 05:30N 50°02' E 000°10'4 8.8
2018-Jun-16 05:00N 49°59' E 000°06'4 8.9
2018-Jun-16 04:30N 49°55' E 000°01'4 9.0
2018-Jun-16 04:00N 49°52' W 000°03'5 9.3
2018-Jun-16 03:30N 49°48' W 000°07'5 9.9
2018-Jun-16 03:00N 49°43' W 000°09'511.0
2018-Jun-16 02:30N 49°38' W 000°08'611.0
2018-Jun-16 02:00N 49°32' W 000°06'612.1
2018-Jun-16 01:30N 49°30' E 000°03'5 9.4
2018-Jun-16 01:00N 49°27' E 000°09'1 0.9
2018-Jun-16 00:28N 49°27' E 000°10'0 0.0
2018-Jun-15 23:58N 49°27' E 000°10'0 0.0
2018-Jun-15 23:28N 49°27' E 000°10'0 0.0
2018-Jun-15 22:58N 49°27' E 000°10'0 0.0
2018-Jun-15 22:28N 49°27' E 000°10'0 0.0
2018-Jun-15 21:58N 49°27' E 000°10'0 0.0
2018-Jun-15 21:28N 49°27' E 000°10'0 0.0
2018-Jun-15 20:58N 49°27' E 000°10'0 0.0
2018-Jun-15 20:28N 49°27' E 000°10'0 0.0
2018-Jun-15 19:58N 49°27' E 000°10'0 0.0
2018-Jun-15 19:28N 49°27' E 000°10'0 0.0
2018-Jun-15 18:58N 49°27' E 000°10'0 0.0
2018-Jun-15 18:28N 49°27' E 000°10'0 0.0
2018-Jun-15 17:58N 49°27' E 000°10'0 0.0
2018-Jun-15 17:28N 49°27' E 000°10'0 0.0
2018-Jun-15 16:58N 49°27' E 000°10'0 0.0
2018-Jun-15 16:28N 49°27' E 000°10'0 0.0
2018-Jun-15 15:58N 49°27' E 000°10'0 0.0
2018-Jun-15 15:28N 49°27' E 000°10'0 0.0
2018-Jun-15 14:58N 49°27' E 000°10'0 0.0
2018-Jun-15 14:28N 49°27' E 000°10'0 0.0
2018-Jun-15 13:58N 49°27' E 000°10'0 0.0
2018-Jun-15 13:28N 49°27' E 000°10'0 0.0
2018-Jun-15 12:58N 49°27' E 000°10'0 0.0
2018-Jun-15 12:28N 49°27' E 000°10'0 0.0
2018-Jun-15 11:58N 49°27' E 000°10'0 0.0
2018-Jun-15 11:28N 49°27' E 000°10'0 0.0
2018-Jun-15 10:58N 49°27' E 000°10'0 0.0
2018-Jun-15 10:28N 49°27' E 000°10'0 0.0
2018-Jun-15 09:58N 49°27' E 000°10'0 0.0
2018-Jun-15 09:28N 49°27' E 000°10'0 0.0
2018-Jun-15 08:58N 49°27' E 000°10'0 0.0
2018-Jun-15 08:28N 49°27' E 000°10'0 0.0
2018-Jun-15 07:58N 49°27' E 000°10'0 0.0
2018-Jun-15 07:28N 49°27' E 000°10'0 0.0
2018-Jun-15 06:58N 49°27' E 000°10'0 0.0
2018-Jun-15 06:28N 49°27' E 000°10'0 0.0
2018-Jun-15 05:58N 49°27' E 000°10'0 0.0
2018-Jun-15 05:28N 49°27' E 000°10'0 0.0
2018-Jun-15 04:58N 49°27' E 000°10'0 0.7
2018-Jun-15 04:30N 49°27' E 000°09'3 5.4
2018-Jun-15 04:00N 49°29' E 000°05'613.0
2018-Jun-15 03:30N 49°31' W 000°04'510.5
2018-Jun-15 03:00N 49°33' W 000°11'2 3.0
2018-Jun-15 02:30N 49°35' W 000°12'2 4.4
2018-Jun-15 01:59N 49°37' W 000°14'0 0.1
2018-Jun-15 01:29N 49°37' W 000°14'0 0.3
2018-Jun-15 00:59N 49°37' W 000°13'0 0.1
2018-Jun-15 00:29N 49°37' W 000°13'0 0.1
2018-Jun-14 23:59N 49°37' W 000°13'0 0.0
2018-Jun-14 23:29N 49°37' W 000°13'0 0.0
2018-Jun-14 22:59N 49°37' W 000°13'0 0.0
2018-Jun-14 22:29N 49°37' W 000°13'0 0.0
2018-Jun-14 21:59N 49°37' W 000°13'0 0.0
2018-Jun-14 21:29N 49°37' W 000°13'0 0.0
2018-Jun-14 20:59N 49°37' W 000°13'0 0.0
2018-Jun-14 20:29N 49°37' W 000°13'0 0.0
2018-Jun-14 19:59N 49°37' W 000°13'0 0.1
2018-Jun-14 19:29N 49°37' W 000°13'0 0.0
2018-Jun-14 18:59N 49°37' W 000°13'0 0.0
2018-Jun-14 18:26N 49°37' W 000°13'0 0.1
2018-Jun-14 17:59N 49°37' W 000°13'0 0.1
2018-Jun-14 17:29N 49°37' W 000°13'0 0.1
2018-Jun-14 16:59N 49°37' W 000°14'0 0.0
2018-Jun-14 16:29N 49°37' W 000°14'0 0.1
2018-Jun-14 15:59N 49°37' W 000°14'0 0.0
2018-Jun-14 15:29N 49°37' W 000°14'0 0.0
2018-Jun-14 14:59N 49°37' W 000°14'0 0.1
2018-Jun-14 14:29N 49°37' W 000°14'0 0.3
2018-Jun-14 13:59N 49°37' W 000°14'0 0.2
2018-Jun-14 13:29N 49°37' W 000°13'0 0.1
2018-Jun-14 12:59N 49°37' W 000°13'0 0.1
2018-Jun-14 12:29N 49°37' W 000°13'0 0.0
2018-Jun-14 11:59N 49°37' W 000°13'0 0.0
2018-Jun-14 11:29N 49°37' W 000°13'0 0.0
2018-Jun-14 10:59N 49°37' W 000°13'0 0.0
2018-Jun-14 10:29N 49°37' W 000°13'0 0.0
2018-Jun-14 09:59N 49°37' W 000°13'0 0.0
2018-Jun-14 09:29N 49°37' W 000°13'0 0.0
2018-Jun-14 08:59N 49°37' W 000°13'0 0.0
2018-Jun-14 08:29N 49°37' W 000°13'0 0.1
2018-Jun-14 07:59N 49°37' W 000°13'0 0.0
2018-Jun-14 07:29N 49°37' W 000°13'0 0.1
2018-Jun-14 06:59N 49°37' W 000°13'0 0.0
2018-Jun-14 06:29N 49°37' W 000°13'0 0.5
2018-Jun-14 05:59N 49°37' W 000°13'0 0.2
2018-Jun-14 05:29N 49°37' W 000°14'0 0.1
2018-Jun-14 04:59N 49°37' W 000°14'0 0.0
2018-Jun-14 04:29N 49°37' W 000°14'0 0.0
2018-Jun-14 03:59N 49°37' W 000°14'0 0.0
2018-Jun-14 03:29N 49°37' W 000°14'0 0.0
2018-Jun-14 02:59N 49°37' W 000°14'0 0.0
2018-Jun-14 02:29N 49°37' W 000°14'0 0.0
2018-Jun-14 01:59N 49°37' W 000°14'0 0.0
2018-Jun-14 01:29N 49°37' W 000°14'0 0.6
2018-Jun-14 01:00N 49°37' W 000°14'3 5.6
2018-Jun-14 00:30N 49°40' W 000°15'510.7
2018-Jun-14 00:00N 49°44' W 000°11'510.5
2018-Jun-13 23:30N 49°49' W 000°09'510.3
2018-Jun-13 23:00N 49°54' W 000°07'510.1
2018-Jun-13 22:30N 49°59' W 000°06'5 9.7
2018-Jun-13 22:00N 50°04' W 000°05'4 9.1
2018-Jun-13 21:30N 50°09' W 000°04'4 8.9
2018-Jun-13 21:00N 50°13' W 000°03'5 9.2
2018-Jun-13 20:30N 50°18' W 000°03'5 9.4
2018-Jun-13 20:00N 50°22' W 000°03'5 9.2
2018-Jun-13 19:30N 50°27' W 000°03'4 8.4
2018-Jun-13 19:00N 50°28' E 000°03'5 9.2
2018-Jun-13 18:31N 50°30' E 000°10'5 9.9
2018-Jun-13 18:00N 50°31' E 000°18'510.7
2018-Jun-13 17:31N 50°33' E 000°26'611.3
2018-Jun-13 17:00N 50°34' E 000°34'611.7
2018-Jun-13 16:30N 50°38' E 000°42'611.6
2018-Jun-13 16:00N 50°41' E 000°49'611.5
2018-Jun-13 15:30N 50°44' E 000°57'611.1
2018-Jun-13 15:01N 50°48' E 001°04'510.5
2018-Jun-13 14:30N 50°50' E 001°11'510.1
2018-Jun-13 14:01N 50°53' E 001°17'5 9.4
2018-Jun-13 13:30N 50°57' E 001°22'4 8.5
2018-Jun-13 13:00N 51°01' E 001°26'4 7.9
2018-Jun-13 12:30N 51°03' E 001°30'4 7.2
2018-Jun-13 12:01N 51°06' E 001°34'4 7.2
2018-Jun-13 11:30N 51°08' E 001°39'4 7.9
2018-Jun-13 11:00N 51°11' E 001°43'4 8.7
2018-Jun-13 10:30N 51°15' E 001°48'5 9.7
2018-Jun-13 10:00N 51°19' E 001°52'510.7
2018-Jun-13 09:30N 51°23' E 001°57'4 8.7
2018-Jun-13 09:00N 51°24' E 002°04'510.5
2018-Jun-13 08:30N 51°21' E 002°11'611.2
2018-Jun-13 08:00N 51°20' E 002°20'612.7
2018-Jun-13 07:30N 51°23' E 002°30'612.1
2018-Jun-13 07:00N 51°23' E 002°39'612.0
2018-Jun-13 06:30N 51°25' E 002°48'916.6
2018-Jun-13 06:00N 51°25' E 003°02'816.8
2018-Jun-13 05:30N 51°25' E 003°15'  

Dump ship's entire track history